createdAt,value
2018-05-17T00:01:39.911Z,62.73
2018-05-17T00:04:06.868Z,58.27
2018-05-17T00:06:33.065Z,51.07
2018-05-17T00:09:00.026Z,54.87
2018-05-17T00:11:26.987Z,53.03
2018-05-17T00:13:53.271Z,49.80
2018-05-17T00:16:19.488Z,56.27
2018-05-17T00:18:45.766Z,50.60
2018-05-17T00:21:12.695Z,51.77
2018-05-17T00:23:39.654Z,56.30
2018-05-17T00:26:06.595Z,47.23
2018-05-17T00:28:33.556Z,44.20
2018-05-17T00:30:59.747Z,48.97
2018-05-17T00:33:25.972Z,44.93
2018-05-17T00:35:52.178Z,43.17
2018-05-17T00:38:18.400Z,50.90
2018-05-17T00:40:44.655Z,57.80
2018-05-17T00:43:10.876Z,47.47
2018-05-17T00:45:37.136Z,42.67
2018-05-17T00:48:04.095Z,38.70
2018-05-17T00:50:31.032Z,46.57
2018-05-17T00:53:10.295Z,48.93
2018-05-17T00:55:37.362Z,42.83
2018-05-17T00:58:03.571Z,37.37
2018-05-17T01:00:29.779Z,48.13
2018-05-17T01:02:57.300Z,40.43
2018-05-17T01:05:23.731Z,33.07
2018-05-17T01:07:50.678Z,49.97
2018-05-17T01:10:17.667Z,34.23
2018-05-17T01:12:44.686Z,42.27
2018-05-17T01:15:10.884Z,45.27
2018-05-17T01:17:37.542Z,45.70
2018-05-17T01:20:03.864Z,36.20
2018-05-17T01:22:30.818Z,37.90
2018-05-17T01:24:57.021Z,46.83
2018-05-17T01:27:23.276Z,38.67
2018-05-17T01:29:49.495Z,46.13
2018-05-17T01:32:15.687Z,35.90
2018-05-17T01:34:41.908Z,46.43
2018-05-17T01:37:21.067Z,46.10
2018-05-17T01:39:47.283Z,40.93
2018-05-17T01:42:13.574Z,29.90
2018-05-17T01:44:40.456Z,36.63
2018-05-17T01:47:06.650Z,35.60
2018-05-17T01:49:32.871Z,38.80
2018-05-17T01:51:59.063Z,48.23
2018-05-17T01:54:25.275Z,34.80
2018-05-17T01:56:51.490Z,35.60
2018-05-17T01:59:17.702Z,40.40
2018-05-17T02:01:44.634Z,36.80
2018-05-17T02:04:10.895Z,41.73
2018-05-17T02:06:37.090Z,36.87
2018-05-17T02:09:03.370Z,42.30
2018-05-17T02:11:29.555Z,36.30
2018-05-17T02:13:55.766Z,43.87
2018-05-17T02:16:21.950Z,42.33
2018-05-17T02:18:48.182Z,47.40
2018-05-17T02:21:14.371Z,43.13
2018-05-17T02:23:40.558Z,44.57
2018-05-17T02:26:06.779Z,39.03
2018-05-17T02:28:32.977Z,32.77
2018-05-17T02:30:59.931Z,46.17
2018-05-17T02:33:26.123Z,47.73
2018-05-17T02:35:52.335Z,42.70
2018-05-17T02:38:18.605Z,36.00
2018-05-17T02:40:44.835Z,35.27
2018-05-17T02:43:11.771Z,45.17
2018-05-17T02:45:38.728Z,49.33
2018-05-17T02:48:05.663Z,37.83
2018-05-17T02:50:32.615Z,41.40
2018-05-17T02:52:58.835Z,40.63
2018-05-17T02:55:25.799Z,37.50
2018-05-17T02:57:52.754Z,39.77
2018-05-17T03:00:18.971Z,43.73
2018-05-17T03:02:45.934Z,36.30
2018-05-17T03:05:12.151Z,37.33
2018-05-17T03:07:38.344Z,37.13
2018-05-17T03:10:04.559Z,42.07
2018-05-17T03:12:30.763Z,37.97
2018-05-17T03:14:56.986Z,41.97
2018-05-17T03:17:23.174Z,36.50
2018-05-17T03:19:50.135Z,43.33
2018-05-17T03:22:17.095Z,47.70
2018-05-17T03:24:43.287Z,37.03
2018-05-17T03:27:09.507Z,44.13
2018-05-17T03:29:35.781Z,36.70
2018-05-17T03:32:01.940Z,39.47
2018-05-17T03:34:28.140Z,39.50
2018-05-17T03:36:54.358Z,27.23
2018-05-17T03:39:21.287Z,35.30
2018-05-17T03:41:48.238Z,38.90
2018-05-17T03:44:15.170Z,38.67
2018-05-17T03:46:41.391Z,48.70
2018-05-17T03:49:07.587Z,45.03
2018-05-17T03:51:33.807Z,35.23
2018-05-17T03:54:00.003Z,40.97
2018-05-17T03:56:26.979Z,44.87
2018-05-17T03:58:53.167Z,37.63
2018-05-17T04:01:32.611Z,52.90
2018-05-17T04:04:11.315Z,42.97
2018-05-17T04:06:41.575Z,45.23
2018-05-17T04:09:08.031Z,30.73
2018-05-17T04:11:34.242Z,34.93
2018-05-17T04:14:00.457Z,34.90
2018-05-17T04:16:27.423Z,40.87
2018-05-17T04:18:54.608Z,42.57
2018-05-17T04:21:20.851Z,39.93
2018-05-17T04:23:47.047Z,33.07
2018-05-17T04:26:13.239Z,42.50
2018-05-17T04:28:40.194Z,38.40
2018-05-17T04:31:06.411Z,42.43
2018-05-17T04:33:33.378Z,37.97
2018-05-17T04:35:59.574Z,32.90
2018-05-17T04:38:26.535Z,29.00
2018-05-17T04:40:53.462Z,29.87
2018-05-17T04:43:19.690Z,42.30
2018-05-17T04:45:46.635Z,46.00
2018-05-17T04:48:12.870Z,27.63
2018-05-17T04:50:39.807Z,37.10
2018-05-17T04:53:06.039Z,34.60
2018-05-17T04:55:32.252Z,38.03
2018-05-17T04:57:58.500Z,41.43
2018-05-17T05:00:25.435Z,44.00
2018-05-17T05:02:51.692Z,32.30
2018-05-17T05:05:18.687Z,31.17
2018-05-17T05:07:44.903Z,43.27
2018-05-17T05:10:11.102Z,43.23
2018-05-17T05:12:38.091Z,33.53
2018-05-17T05:15:04.282Z,41.30
2018-05-17T05:17:30.527Z,34.53
2018-05-17T05:19:56.718Z,37.00
2018-05-17T05:22:23.687Z,31.63
2018-05-17T05:24:49.879Z,47.17
2018-05-17T05:27:17.731Z,35.20
2018-05-17T05:29:43.923Z,43.37
2018-05-17T05:32:10.112Z,33.67
2018-05-17T05:34:37.090Z,30.23
2018-05-17T05:37:03.288Z,35.47
2018-05-17T05:39:29.506Z,33.60
2018-05-17T05:41:55.703Z,33.60
2018-05-17T05:44:21.923Z,36.47
2018-05-17T05:46:48.124Z,31.73
2018-05-17T05:49:14.714Z,36.27
2018-05-17T05:51:41.021Z,33.80
2018-05-17T05:54:07.293Z,45.90
2018-05-17T05:56:33.487Z,40.40
2018-05-17T05:58:59.819Z,39.23
2018-05-17T06:01:26.011Z,36.47
2018-05-17T06:03:52.270Z,36.30
2018-05-17T06:06:18.475Z,34.77
2018-05-17T06:08:44.698Z,34.80
2018-05-17T06:11:10.918Z,30.73
2018-05-17T06:13:37.887Z,31.77
2018-05-17T06:16:04.087Z,32.10
2018-05-17T06:18:31.063Z,32.20
2018-05-17T06:20:57.260Z,28.33
2018-05-17T06:23:24.223Z,30.73
2018-05-17T06:25:50.427Z,39.53
2018-05-17T06:28:17.403Z,29.83
2018-05-17T06:30:43.594Z,32.40
2018-05-17T06:33:10.544Z,26.47
2018-05-17T06:35:41.199Z,29.63
2018-05-17T06:38:08.201Z,39.90
2018-05-17T06:40:34.428Z,30.90
2018-05-17T06:43:00.627Z,29.80
2018-05-17T06:45:26.855Z,26.70
2018-05-17T06:47:53.056Z,20.70
2018-05-17T06:50:20.010Z,26.20
2018-05-17T06:52:46.239Z,31.43
2018-05-17T06:55:12.496Z,27.07
2018-05-17T06:57:38.701Z,28.93
2018-05-17T07:00:04.930Z,19.47
2018-05-17T07:02:31.130Z,27.30
2018-05-17T07:04:57.559Z,34.33
2018-05-17T07:07:23.782Z,26.70
2018-05-17T07:09:50.000Z,24.83
2018-05-17T07:12:16.223Z,24.93
2018-05-17T07:14:42.410Z,25.90
2018-05-17T07:17:08.627Z,22.30
2018-05-17T07:19:35.739Z,28.20
2018-05-17T07:22:01.931Z,25.00
2018-05-17T07:24:28.123Z,25.60
2018-05-17T07:26:55.099Z,21.77
2018-05-17T07:29:21.287Z,20.33
2018-05-17T07:31:47.507Z,26.17
2018-05-17T07:34:13.828Z,21.87
2018-05-17T07:36:40.215Z,32.00
2018-05-17T07:39:06.415Z,27.70
2018-05-17T07:41:33.377Z,25.77
2018-05-17T07:44:00.311Z,32.20
2018-05-17T07:46:27.275Z,18.97
2018-05-17T07:48:54.295Z,26.53
2018-05-17T07:51:21.263Z,23.43
2018-05-17T07:53:47.467Z,29.10
2018-05-17T07:56:13.691Z,27.67
2018-05-17T07:58:39.887Z,21.87
2018-05-17T08:01:06.154Z,18.67
2018-05-17T08:03:32.338Z,21.90
2018-05-17T08:05:58.699Z,21.27
2018-05-17T08:08:25.679Z,23.80
2018-05-17T08:10:52.639Z,24.10
2018-05-17T08:13:18.862Z,18.33
2018-05-17T08:15:45.799Z,24.60
2018-05-17T08:18:12.770Z,21.00
2018-05-17T08:20:38.976Z,19.87
2018-05-17T08:23:05.992Z,18.83
2018-05-17T08:25:32.499Z,20.83
2018-05-17T08:27:58.722Z,19.80
2018-05-17T08:30:24.914Z,18.53
2018-05-17T08:32:51.876Z,21.00
2018-05-17T08:35:18.114Z,16.77
2018-05-17T08:37:44.336Z,20.33
2018-05-17T08:40:10.538Z,20.20
2018-05-17T08:42:37.528Z,28.87
2018-05-17T08:45:03.739Z,15.00
2018-05-17T08:47:36.951Z,15.37
2018-05-17T08:50:03.144Z,21.17
2018-05-17T08:52:30.112Z,21.00
2018-05-17T08:54:56.371Z,19.80
2018-05-17T08:57:22.595Z,15.87
2018-05-17T08:59:48.818Z,27.13
2018-05-17T09:02:15.044Z,26.70
2018-05-17T09:04:41.244Z,22.47
2018-05-17T09:07:07.479Z,20.50
2018-05-17T09:09:33.675Z,17.90
2018-05-17T09:11:59.924Z,24.23
2018-05-17T09:14:26.865Z,17.33
2018-05-17T09:16:53.834Z,17.40
2018-05-17T09:19:20.043Z,24.30
2018-05-17T09:21:47.004Z,25.27
2018-05-17T09:24:13.199Z,25.77
2018-05-17T09:26:39.449Z,18.37
2018-05-17T09:29:06.441Z,16.70
2018-05-17T09:31:32.619Z,18.30
2018-05-17T09:33:59.583Z,13.70
2018-05-17T09:36:25.774Z,13.83
2018-05-17T09:38:51.991Z,15.63
2018-05-17T09:41:18.202Z,20.53
2018-05-17T09:43:45.406Z,14.83
2018-05-17T09:46:12.338Z,15.33
2018-05-17T09:48:39.645Z,18.17
2018-05-17T09:51:05.847Z,12.60
2018-05-17T09:53:32.066Z,15.73
2018-05-17T09:55:59.004Z,20.77
2018-05-17T09:58:26.051Z,21.20
2018-05-17T10:00:53.078Z,16.73
2018-05-17T10:03:19.750Z,20.10
2018-05-17T10:05:46.695Z,17.27
2018-05-17T10:08:13.654Z,16.17
2018-05-17T10:10:39.847Z,15.20
2018-05-17T10:13:06.980Z,20.20
2018-05-17T10:15:33.249Z,17.30
2018-05-17T10:17:59.398Z,17.63
2018-05-17T10:20:25.644Z,19.27
2018-05-17T10:22:51.843Z,22.93
2018-05-17T10:25:18.075Z,16.40
2018-05-17T10:27:44.268Z,19.30
2018-05-17T10:30:10.619Z,16.63
2018-05-17T10:32:37.558Z,18.57
2018-05-17T10:35:04.588Z,22.17
2018-05-17T10:37:30.782Z,15.37
2018-05-17T10:39:57.015Z,16.57
2018-05-17T10:42:23.211Z,20.70
2018-05-17T10:44:50.412Z,16.37
2018-05-17T10:47:16.619Z,16.27
2018-05-17T10:49:42.870Z,18.27
2018-05-17T10:52:09.072Z,11.93
2018-05-17T10:54:35.609Z,11.63
2018-05-17T10:57:02.536Z,17.27
2018-05-17T10:59:28.735Z,16.33
2018-05-17T11:01:55.698Z,16.03
2018-05-17T11:04:22.631Z,12.37
2018-05-17T11:06:49.596Z,13.00
2018-05-17T11:09:16.534Z,24.63
2018-05-17T11:11:43.519Z,17.77
2018-05-17T11:14:09.719Z,23.40
2018-05-17T11:16:35.943Z,15.37
2018-05-17T11:19:02.880Z,21.47
2018-05-17T11:21:29.850Z,19.50
2018-05-17T11:23:56.043Z,25.40
2018-05-17T11:26:22.262Z,14.57
2018-05-17T11:28:48.455Z,17.33
2018-05-17T11:31:14.687Z,14.00
2018-05-17T11:33:40.887Z,23.40
2018-05-17T11:36:07.115Z,23.00
2018-05-17T11:38:33.319Z,15.97
2018-05-17T11:41:00.299Z,16.50
2018-05-17T11:43:26.499Z,16.70
2018-05-17T11:45:53.611Z,16.13
2018-05-17T11:48:19.845Z,15.30
2018-05-17T11:50:46.058Z,19.50
2018-05-17T11:53:12.279Z,22.57
2018-05-17T11:55:38.479Z,23.87
2018-05-17T11:58:04.703Z,11.97
2018-05-17T12:00:31.707Z,18.50
2018-05-17T12:02:57.934Z,16.90
2018-05-17T12:05:24.131Z,20.23
2018-05-17T12:07:50.347Z,16.20
2018-05-17T12:10:16.551Z,13.80
2018-05-17T12:12:43.527Z,10.53
2018-05-17T12:15:09.727Z,24.27
2018-05-17T12:17:36.688Z,19.00
2018-05-17T12:20:03.628Z,24.17
2018-05-17T12:22:30.591Z,19.93
2018-05-17T12:24:56.779Z,15.00
2018-05-17T12:27:23.011Z,14.17
2018-05-17T12:29:49.206Z,12.53
2018-05-17T12:32:15.422Z,17.07
2018-05-17T12:34:41.615Z,16.03
2018-05-17T12:37:08.600Z,22.07
2018-05-17T12:39:34.806Z,17.10
2018-05-17T12:42:01.003Z,19.80
2018-05-17T12:44:27.219Z,17.63
2018-05-17T12:46:53.411Z,21.70
2018-05-17T12:49:19.631Z,26.03
2018-05-17T12:51:45.819Z,17.03
2018-05-17T12:54:12.103Z,20.87
2018-05-17T12:56:38.302Z,20.80
2018-05-17T12:59:04.521Z,21.67
2018-05-17T13:01:31.466Z,23.27
2018-05-17T13:03:58.434Z,14.37
2018-05-17T13:06:24.647Z,16.00
2018-05-17T13:08:51.602Z,19.50
2018-05-17T13:11:18.561Z,19.33
2018-05-17T13:13:44.792Z,19.10
2018-05-17T13:16:10.991Z,23.50
2018-05-17T13:18:37.956Z,22.67
2018-05-17T13:21:04.151Z,17.43
2018-05-17T13:23:30.379Z,16.80
2018-05-17T13:25:56.575Z,16.47
2018-05-17T13:28:22.823Z,19.17
2018-05-17T13:30:49.026Z,24.10
2018-05-17T13:33:15.224Z,16.83
2018-05-17T13:35:41.447Z,18.77
2018-05-17T13:38:08.387Z,18.67
2018-05-17T13:40:35.353Z,28.07
2018-05-17T13:43:01.543Z,16.73
2018-05-17T13:45:27.766Z,17.43
2018-05-17T13:47:53.974Z,17.67
2018-05-17T13:50:20.211Z,19.30
2018-05-17T13:52:46.411Z,15.03
2018-05-17T13:55:12.641Z,13.80
2018-05-17T13:57:38.840Z,16.97
2018-05-17T14:00:05.066Z,15.87
2018-05-17T14:02:32.098Z,13.10
2018-05-17T14:04:58.579Z,17.93
2018-05-17T14:07:24.797Z,20.97
2018-05-17T14:09:51.016Z,21.43
2018-05-17T14:12:17.252Z,18.30
2018-05-17T14:14:43.466Z,17.67
2018-05-17T14:17:10.403Z,21.87
2018-05-17T14:19:37.429Z,16.20
2018-05-17T14:22:04.389Z,14.93
2018-05-17T14:24:31.367Z,19.50
2018-05-17T14:26:57.558Z,19.10
2018-05-17T14:29:27.146Z,17.37
2018-05-17T14:31:53.395Z,19.53
2018-05-17T14:34:19.606Z,16.70
2018-05-17T14:36:45.867Z,14.57
2018-05-17T14:39:12.843Z,30.37
2018-05-17T14:41:39.043Z,18.70
2018-05-17T14:44:06.059Z,24.77
2018-05-17T14:46:33.084Z,23.50
2018-05-17T14:48:59.860Z,16.97
2018-05-17T14:51:27.783Z,18.47
2018-05-17T14:53:53.978Z,18.57
2018-05-17T14:56:20.983Z,21.70
2018-05-17T14:58:47.175Z,23.57
2018-05-17T15:01:13.385Z,18.23
2018-05-17T15:03:39.758Z,22.90
2018-05-17T15:06:06.043Z,33.30
2018-05-17T15:08:33.043Z,33.83
2018-05-17T15:10:59.441Z,30.90
2018-05-17T15:13:25.615Z,26.27
2018-05-17T15:15:51.810Z,30.93
2018-05-17T15:18:18.035Z,24.97
2018-05-17T15:20:44.231Z,22.57
2018-05-17T15:23:11.527Z,19.93
2018-05-17T15:25:37.726Z,22.07
2018-05-17T15:28:04.686Z,24.40
2018-05-17T15:30:30.887Z,23.57
2018-05-17T15:35:44.323Z,16.83
2018-05-17T15:38:10.555Z,22.23
2018-05-17T15:40:36.755Z,17.50
2018-05-17T15:43:02.980Z,20.40
2018-05-17T15:45:29.179Z,16.47
2018-05-17T15:47:55.412Z,15.93
2018-05-17T15:50:21.615Z,19.03
2018-05-17T15:52:48.582Z,27.17
2018-05-17T15:55:14.787Z,24.67
2018-05-17T15:57:41.759Z,25.53
2018-05-17T16:00:07.956Z,23.93
2018-05-17T16:02:34.918Z,22.37
2018-05-17T16:05:01.934Z,30.03
2018-05-17T16:07:28.160Z,20.57
2018-05-17T16:09:54.358Z,23.27
2018-05-17T16:12:20.582Z,13.63
2018-05-17T16:14:47.056Z,25.40
2018-05-17T16:17:13.050Z,20.53
2018-05-17T16:19:39.243Z,26.07
2018-05-17T16:22:05.464Z,23.77
2018-05-17T16:24:32.411Z,24.57
2018-05-17T16:26:59.367Z,30.27
2018-05-17T16:29:25.607Z,25.87
2018-05-17T16:31:52.295Z,26.53
2018-05-17T16:34:18.487Z,25.80
2018-05-17T16:36:55.787Z,21.80
2018-05-17T16:39:22.310Z,24.63
2018-05-17T16:41:48.547Z,23.23
2018-05-17T16:44:14.776Z,29.33
2018-05-17T16:46:40.971Z,21.97
2018-05-17T16:49:07.212Z,23.03
2018-05-17T16:51:33.406Z,22.43
2018-05-17T16:53:59.646Z,33.70
2018-05-17T16:56:26.797Z,20.30
2018-05-17T16:58:53.775Z,25.80
2018-05-17T17:01:20.071Z,27.97
2018-05-17T17:03:47.252Z,20.83
2018-05-17T17:06:13.438Z,22.43
2018-05-17T17:08:39.635Z,18.63
2018-05-17T17:11:05.859Z,20.40
2018-05-17T17:13:32.092Z,18.87
2018-05-17T17:15:58.715Z,18.50
2018-05-17T17:18:24.919Z,23.77
2018-05-17T17:20:53.685Z,28.10
2018-05-17T17:23:20.623Z,31.87
2018-05-17T17:25:47.634Z,18.27
2018-05-17T17:28:13.831Z,21.93
2018-05-17T17:30:40.060Z,33.07
2018-05-17T17:33:06.264Z,23.83
2018-05-17T17:35:32.482Z,29.50
2018-05-17T17:38:00.168Z,36.60
2018-05-17T17:40:33.115Z,27.33
2018-05-17T17:42:59.307Z,20.57
2018-05-17T17:45:25.556Z,26.77
2018-05-17T17:47:51.761Z,25.97
2018-05-17T17:50:18.271Z,26.33
2018-05-17T17:52:45.203Z,38.27
2018-05-17T17:55:12.487Z,23.67
2018-05-17T17:57:38.688Z,19.07
2018-05-17T18:00:05.676Z,15.57
2018-05-17T18:02:31.872Z,17.43
2018-05-17T18:04:58.863Z,23.73
2018-05-17T18:07:25.064Z,22.60
2018-05-17T18:09:58.365Z,23.20
2018-05-17T18:12:24.619Z,26.70
2018-05-17T18:14:50.970Z,20.20
2018-05-17T18:17:17.163Z,31.80
2018-05-17T18:19:43.358Z,34.13
2018-05-17T18:22:10.314Z,28.60
2018-05-17T18:24:37.286Z,35.43
2018-05-17T18:27:03.499Z,25.77
2018-05-17T18:29:30.435Z,28.67
2018-05-17T18:31:57.394Z,24.87
2018-05-17T18:34:23.590Z,15.03
2018-05-17T18:36:51.335Z,18.30
2018-05-17T18:39:17.548Z,17.30
2018-05-17T18:41:43.766Z,25.73
2018-05-17T18:44:10.786Z,23.03
2018-05-17T18:46:37.751Z,29.73
2018-05-17T18:49:03.993Z,39.23
2018-05-17T18:51:30.178Z,23.33
2018-05-17T18:53:57.147Z,26.77
2018-05-17T18:56:23.368Z,32.60
2018-05-17T18:58:49.567Z,25.67
2018-05-17T19:01:15.762Z,26.07
2018-05-17T19:03:41.978Z,32.17
2018-05-17T19:06:08.257Z,30.00
2018-05-17T19:08:34.505Z,30.03
2018-05-17T19:11:01.078Z,28.00
2018-05-17T19:13:27.303Z,25.90
2018-05-17T19:15:53.494Z,32.70
2018-05-17T19:18:20.453Z,24.93
2018-05-17T19:20:46.661Z,37.57
2018-05-17T19:23:13.631Z,27.10
2018-05-17T19:25:39.916Z,22.47
2018-05-17T19:28:06.095Z,29.53
2018-05-17T19:30:32.295Z,27.37
2018-05-17T19:32:59.254Z,29.30
2018-05-17T19:35:26.004Z,30.37
2018-05-17T19:37:52.284Z,30.80
2018-05-17T19:40:20.063Z,29.20
2018-05-17T19:42:47.206Z,26.60
2018-05-17T19:45:14.185Z,29.73
2018-05-17T19:47:40.426Z,24.00
2018-05-17T19:50:06.627Z,28.00
2018-05-17T19:52:33.597Z,25.23
2018-05-17T19:54:59.797Z,29.50
2018-05-17T19:57:26.151Z,30.67
2018-05-17T19:59:53.090Z,28.53
2018-05-17T20:02:20.119Z,24.20
2018-05-17T20:04:46.351Z,23.70
2018-05-17T20:07:12.586Z,29.20
2018-05-17T20:09:38.788Z,22.70
2018-05-17T20:12:05.126Z,24.50
2018-05-17T20:14:31.323Z,44.33
2018-05-17T20:16:57.516Z,19.00
2018-05-17T20:19:24.484Z,21.80
2018-05-17T20:21:50.935Z,26.33
2018-05-17T20:24:17.159Z,21.53
2018-05-17T20:26:43.349Z,22.50
2018-05-17T20:29:10.322Z,24.87
2018-05-17T20:31:36.506Z,24.10
2018-05-17T20:34:02.735Z,20.70
2018-05-17T20:36:28.923Z,34.87
2018-05-17T20:38:55.203Z,22.97
2018-05-17T20:41:21.407Z,20.53
2018-05-17T20:43:47.623Z,23.80
2018-05-17T20:46:13.813Z,23.57
2018-05-17T20:48:41.019Z,22.17
2018-05-17T20:51:07.206Z,21.60
2018-05-17T20:53:33.402Z,21.03
2018-05-17T20:56:00.598Z,21.83
2018-05-17T20:58:26.790Z,24.03
2018-05-17T21:00:53.746Z,32.33
2018-05-17T21:03:20.674Z,28.80
2018-05-17T21:05:47.671Z,23.13
2018-05-17T21:08:13.867Z,26.90
2018-05-17T21:10:40.831Z,31.33
2018-05-17T21:13:07.038Z,28.70
2018-05-17T21:15:33.997Z,27.53
2018-05-17T21:18:00.202Z,25.03
2018-05-17T21:20:27.171Z,34.70
2018-05-17T21:22:53.371Z,31.20
2018-05-17T21:25:19.603Z,23.07
2018-05-17T21:27:46.538Z,25.73
2018-05-17T21:30:12.763Z,24.67
2018-05-17T21:32:38.955Z,25.50
2018-05-17T21:35:05.175Z,30.67
2018-05-17T21:37:31.374Z,26.10
2018-05-17T21:39:58.351Z,31.97
2018-05-17T21:42:24.543Z,31.73
2018-05-17T21:44:51.521Z,26.13
2018-05-17T21:47:17.731Z,30.70
2018-05-17T21:49:44.695Z,26.10
2018-05-17T21:52:10.901Z,24.37
2018-05-17T21:54:37.119Z,33.10
2018-05-17T21:57:04.063Z,29.33
2018-05-17T21:59:31.179Z,29.43
2018-05-17T22:01:57.383Z,38.63
2018-05-17T22:04:23.604Z,23.73
2018-05-17T22:06:49.902Z,33.63
2018-05-17T22:09:16.047Z,30.83
2018-05-17T22:11:42.272Z,27.83
2018-05-17T22:14:09.212Z,37.57
2018-05-17T22:16:35.499Z,34.83
2018-05-17T22:19:01.694Z,50.67
2018-05-17T22:21:27.989Z,31.50
2018-05-17T22:23:54.931Z,31.50
2018-05-17T22:26:21.150Z,44.30
2018-05-17T22:28:48.115Z,24.37
2018-05-17T22:31:15.101Z,38.87
2018-05-17T22:33:41.295Z,41.13
2018-05-17T22:36:08.255Z,32.40
2018-05-17T22:38:34.443Z,38.57
2018-05-17T22:41:00.696Z,37.63
2018-05-17T22:43:27.639Z,34.73
2018-05-17T22:45:54.574Z,31.50
2018-05-17T22:48:20.795Z,28.83
2018-05-17T22:50:47.996Z,40.20
2018-05-17T22:53:14.206Z,32.37
2018-05-17T22:55:41.135Z,28.70
2018-05-17T22:58:20.335Z,41.80
2018-05-17T23:00:46.535Z,21.17
2018-05-17T23:03:12.751Z,39.50
2018-05-17T23:05:38.962Z,42.23
2018-05-17T23:08:05.919Z,33.33
2018-05-17T23:10:32.867Z,24.60
2018-05-17T23:12:59.851Z,34.53
2018-05-17T23:15:26.098Z,26.20
2018-05-17T23:17:52.308Z,31.20
2018-05-17T23:20:18.523Z,28.23
2018-05-17T23:22:44.722Z,33.43
2018-05-17T23:25:11.699Z,38.33
2018-05-17T23:27:37.910Z,32.97
2018-05-17T23:30:04.119Z,29.70
2018-05-17T23:32:31.051Z,30.87
2018-05-17T23:34:57.264Z,26.03
2018-05-17T23:37:24.086Z,35.03
2018-05-17T23:39:50.307Z,25.70
2018-05-17T23:42:16.494Z,32.67
2018-05-17T23:44:43.455Z,34.90
2018-05-17T23:47:09.651Z,33.03
2018-05-17T23:49:35.863Z,32.80
2018-05-17T23:52:02.076Z,34.50
2018-05-17T23:54:28.296Z,33.40
2018-05-17T23:56:54.478Z,32.77
2018-05-17T23:59:21.500Z,29.30
